Time;durP1;ratioP1;P1;durP2;ratioP2;P2;SDS_P1;SDS_P2;PMS_P1;PMS_P2;Temp;Humidity;BMP_temperature;BMP_pressure;BME280_temperature;BME280_humidity;BME280_pressure;Samples;Min_cycle;Max_cycle;Signal;HPM_P1;HPM_P2
2022/08/20 00:00:45;;;;;;;10.80;5.72;;;;;;;20.92;100.00;101426.66;5094241;28;20044;-54
2022/08/20 00:03:27;;;;;;;11.60;6.63;;;;;;;20.92;100.00;101429.44;5092799;28;20101;-53
2022/08/20 00:05:59;;;;;;;10.48;5.90;;;;;;;20.92;100.00;101418.34;5093239;28;20040;-55
2022/08/20 00:08:28;;;;;;;13.23;6.60;;;;;;;20.88;100.00;101417.38;5092069;28;20597;-56
2022/08/20 00:10:57;;;;;;;10.07;5.47;;;;;;;20.85;100.00;101419.66;5092596;28;20494;-56
2022/08/20 00:13:40;;;;;;;10.30;6.07;;;;;;;20.85;100.00;101422.44;5078880;28;20044;-53
2022/08/20 00:16:09;;;;;;;8.55;5.13;;;;;;;20.85;100.00;101421.59;5074970;28;20041;-56
2022/08/20 00:18:37;;;;;;;7.43;4.80;;;;;;;20.84;100.00;101419.97;5092248;28;20040;-55
2022/08/20 00:21:10;;;;;;;8.75;4.45;;;;;;;20.83;100.00;101413.63;5074139;28;20048;-54
2022/08/20 00:23:48;;;;;;;9.90;5.40;;;;;;;20.82;100.00;101417.53;5092128;28;20075;-53
2022/08/20 00:26:17;;;;;;;8.52;5.13;;;;;;;20.81;100.00;101415.09;5092967;28;20040;-55
2022/08/20 00:28:45;;;;;;;10.73;5.97;;;;;;;20.80;100.00;101416.22;5092983;28;20071;-55
2022/08/20 00:31:16;;;;;;;12.27;5.60;;;;;;;20.80;100.00;101430.88;5057398;28;20089;-56
2022/08/20 00:33:46;;;;;;;6.43;4.35;;;;;;;20.80;100.00;101422.56;5092553;28;20040;-55
2022/08/20 00:36:16;;;;;;;8.75;5.75;;;;;;;20.81;100.00;101421.44;5075094;28;20059;-55
2022/08/20 00:38:45;;;;;;;12.65;6.28;;;;;;;20.80;100.00;101419.78;5092795;28;20048;-57
2022/08/20 00:41:19;;;;;;;11.18;7.72;;;;;;;20.79;100.00;101417.38;5073721;28;20490;-57
2022/08/20 00:43:55;;;;;;;11.77;7.15;;;;;;;20.76;100.00;101418.81;5074431;28;20095;-56
2022/08/20 00:46:28;;;;;;;11.13;7.10;;;;;;;20.75;100.00;101421.91;5061405;28;20032;-56
2022/08/20 00:48:59;;;;;;;9.65;6.35;;;;;;;20.75;100.00;101421.91;5075208;28;20073;-55
2022/08/20 00:51:41;;;;;;;12.15;7.50;;;;;;;20.72;100.00;101417.84;5092317;28;20051;-56
2022/08/20 00:54:36;;;;;;;11.02;7.00;;;;;;;20.71;100.00;101416.22;5074728;28;20115;-58
2022/08/20 00:57:28;;;;;;;12.52;8.55;;;;;;;20.70;100.00;101422.88;5057206;28;20051;-52
2022/08/20 01:00:21;;;;;;;12.80;7.93;;;;;;;20.68;100.00;101413.25;5094149;28;20127;-57
2022/08/20 01:02:49;;;;;;;13.88;7.75;;;;;;;20.63;100.00;101412.25;5095338;28;20051;-56
2022/08/20 01:05:17;;;;;;;12.75;7.80;;;;;;;20.62;100.00;101415.38;5092506;28;20036;-57
2022/08/20 01:07:45;;;;;;;12.90;7.53;;;;;;;20.63;100.00;101414.22;5073461;28;20047;-57
2022/08/20 01:10:20;;;;;;;8.73;6.20;;;;;;;20.63;100.00;101420.56;5074554;28;20048;-58
2022/08/20 01:12:48;;;;;;;8.77;5.93;;;;;;;20.65;100.00;101417.50;5095986;28;20097;-56
2022/08/20 01:15:30;;;;;;;9.05;5.47;;;;;;;20.69;100.00;101414.91;5076704;28;20040;-56
2022/08/20 01:17:59;;;;;;;9.93;6.65;;;;;;;20.70;100.00;101417.34;5093866;28;20043;-54
2022/08/20 01:20:40;;;;;;;10.00;6.28;;;;;;;20.70;100.00;101420.09;5095717;28;20032;-58
2022/08/20 01:23:39;;;;;;;11.05;7.10;;;;;;;20.70;100.00;101419.28;5077748;28;20048;-57
2022/08/20 01:26:29;;;;;;;8.57;5.80;;;;;;;20.70;100.00;101420.09;5093812;28;20036;-58
2022/08/20 01:29:06;;;;;;;12.02;7.72;;;;;;;20.69;100.00;101417.69;5095831;28;20047;-55
2022/08/20 01:31:36;;;;;;;11.60;7.60;;;;;;;20.66;100.00;101413.59;5077493;28;20448;-52
2022/08/20 01:34:08;;;;;;;12.48;7.60;;;;;;;20.61;100.00;101413.72;5077506;28;20040;-54
2022/08/20 01:36:46;;;;;;;10.65;7.00;;;;;;;20.60;100.00;101414.88;5094628;28;20048;-58
2022/08/20 01:39:18;;;;;;;10.25;6.30;;;;;;;20.59;100.00;101408.53;5095517;28;20047;-58
2022/08/20 01:41:55;;;;;;;9.70;5.82;;;;;;;20.61;100.00;101410.94;5094429;28;20041;-53
2022/08/20 01:44:24;;;;;;;9.52;6.55;;;;;;;20.62;100.00;101418.16;5095569;28;20089;-55
2022/08/20 01:46:56;;;;;;;10.40;6.57;;;;;;;20.62;100.00;101416.19;5076281;28;20032;-57
2022/08/20 01:49:33;;;;;;;10.68;6.63;;;;;;;20.62;100.00;101412.59;5095570;28;20036;-52
2022/08/20 01:52:06;;;;;;;15.50;8.30;;;;;;;20.59;100.00;101411.28;5060917;28;20044;-54
2022/08/20 01:54:34;;;;;;;10.82;6.95;;;;;;;20.56;100.00;101411.09;5095224;28;20051;-56
2022/08/20 01:57:19;;;;;;;13.60;7.80;;;;;;;20.53;100.00;101409.78;5076610;28;20043;-56
2022/08/20 01:59:47;;;;;;;9.57;7.03;;;;;;;20.53;100.00;101411.72;5077097;28;20047;-56
2022/08/20 02:02:15;;;;;;;12.35;8.02;;;;;;;20.52;100.00;101410.91;5076444;28;20056;-55
2022/08/20 02:04:44;;;;;;;15.20;7.60;;;;;;;20.53;100.00;101412.53;5076969;28;20052;-57
2022/08/20 02:07:16;;;;;;;11.32;7.28;;;;;;;20.53;100.00;101417.25;5076226;28;20036;-57
2022/08/20 02:09:44;;;;;;;11.52;6.88;;;;;;;20.53;100.00;101420.84;5094206;28;20061;-58
2022/08/20 02:12:13;;;;;;;10.88;7.15;;;;;;;20.53;100.00;101408.97;5076907;28;20498;-56
2022/08/20 02:14:44;;;;;;;12.77;7.40;;;;;;;20.52;100.00;101408.16;5078042;28;20048;-59
2022/08/20 02:17:13;;;;;;;12.00;6.88;;;;;;;20.53;100.00;101414.50;5094233;28;20044;-57
2022/08/20 02:19:50;;;;;;;12.75;8.23;;;;;;;20.53;100.00;101409.78;5094071;28;20044;-57
2022/08/20 02:22:23;;;;;;;12.35;7.68;;;;;;;20.52;100.00;101416.44;5059698;28;20036;-56
2022/08/20 02:24:51;;;;;;;13.20;8.63;;;;;;;20.52;100.00;101418.41;5094940;28;20387;-56
2022/08/20 02:27:22;;;;;;;14.15;8.35;;;;;;;20.51;100.00;101419.53;5094673;28;20036;-57
2022/08/20 02:29:51;;;;;;;12.13;8.90;;;;;;;20.48;100.00;101418.22;5093548;28;20047;-57
2022/08/20 02:32:19;;;;;;;14.27;8.60;;;;;;;20.47;100.00;101421.31;5094461;28;20085;-55
2022/08/20 02:35:02;;;;;;;12.85;9.15;;;;;;;20.45;100.00;101418.06;5094550;28;20040;-57
2022/08/20 02:37:30;;;;;;;13.30;9.90;;;;;;;20.40;100.00;101419.84;5075859;28;20067;-56
2022/08/20 02:39:58;;;;;;;13.55;9.38;;;;;;;20.39;100.00;101409.88;5076701;28;20410;-54
2022/08/20 02:42:26;;;;;;;12.50;8.90;;;;;;;20.38;100.00;101419.34;5093280;28;20048;-52
2022/08/20 02:44:54;;;;;;;14.00;9.48;;;;;;;20.37;100.00;101417.72;5094797;28;20089;-54
2022/08/20 02:47:22;;;;;;;13.45;10.00;;;;;;;20.37;100.00;101423.25;5093133;28;20040;-57
2022/08/20 02:49:50;;;;;;;14.13;9.50;;;;;;;20.38;100.00;101424.06;5094093;28;20043;-53
2022/08/20 02:52:18;;;;;;;15.20;10.23;;;;;;;20.39;100.00;101422.91;5093890;28;20491;-55
2022/08/20 02:54:46;;;;;;;13.85;9.82;;;;;;;20.39;100.00;101418.19;5076282;28;20161;-53
2022/08/20 02:57:16;;;;;;;15.80;10.30;;;;;;;20.37;100.00;101423.25;5092875;28;20032;-57
2022/08/20 02:59:44;;;;;;;12.98;10.05;;;;;;;20.37;100.00;101417.72;5083014;28;20100;-53
2022/08/20 03:02:12;;;;;;;15.20;10.27;;;;;;;20.37;100.00;101426.00;5093656;28;20051;-56
2022/08/20 03:04:40;;;;;;;13.77;10.40;;;;;;;20.36;100.00;101427.13;5059484;28;20040;-56
2022/08/20 03:07:11;;;;;;;14.50;10.57;;;;;;;20.36;100.00;101421.59;5074963;28;20040;-56
2022/08/20 03:09:40;;;;;;;14.50;10.43;;;;;;;20.34;100.00;101423.06;5092744;28;20039;-54
2022/08/20 03:12:08;;;;;;;15.43;10.40;;;;;;;20.32;100.00;101419.78;5093581;28;20048;-55
2022/08/20 03:14:35;;;;;;;13.82;10.73;;;;;;;20.32;100.00;101417.03;5075787;28;20112;-52
2022/08/20 03:17:04;;;;;;;14.25;10.15;;;;;;;20.28;100.00;101414.09;5075965;28;20093;-56
2022/08/20 03:19:31;;;;;;;13.73;10.13;;;;;;;20.29;100.00;101418.47;5092945;28;20040;-53
2022/08/20 03:22:00;;;;;;;14.93;10.43;;;;;;;20.29;100.00;101426.78;5093561;28;20048;-57
2022/08/20 03:24:27;;;;;;;13.38;9.70;;;;;;;20.27;100.00;101417.16;5092503;28;20065;-55
2022/08/20 03:26:55;;;;;;;13.75;10.15;;;;;;;20.26;100.00;101421.88;5075887;28;20054;-54
2022/08/20 03:29:23;;;;;;;13.77;10.20;;;;;;;20.27;100.00;101419.94;5092131;28;20086;-53
2022/08/20 03:31:50;;;;;;;16.65;11.43;;;;;;;20.25;100.00;101414.69;5093276;28;20169;-57
2022/08/20 03:34:18;;;;;;;14.90;10.70;;;;;;;20.23;100.00;101422.53;5078806;28;20036;-58
2022/08/20 03:36:46;;;;;;;12.73;9.43;;;;;;;20.23;100.00;101425.31;5097264;28;20066;-56
2022/08/20 03:39:14;;;;;;;15.55;10.30;;;;;;;20.22;100.00;101430.00;5092875;28;20028;-56
2022/08/20 03:41:42;;;;;;;16.85;10.93;;;;;;;20.22;100.00;101424.47;5092304;28;20044;-54
2022/08/20 03:44:10;;;;;;;15.65;10.75;;;;;;;20.23;100.00;101433.59;5092991;28;20039;-55
2022/08/20 03:46:38;;;;;;;15.43;11.25;;;;;;;20.22;100.00;101432.75;5093217;28;20047;-55
2022/08/20 03:49:06;;;;;;;16.10;11.25;;;;;;;20.22;100.00;101423.66;5091616;28;20052;-53
2022/08/20 03:51:33;;;;;;;17.35;11.68;;;;;;;20.21;100.00;101420.06;5074749;28;20047;-54
2022/08/20 03:54:21;;;;;;;16.73;11.80;;;;;;;20.21;100.00;101430.34;5059686;28;20070;-55
2022/08/20 03:56:49;;;;;;;16.55;11.73;;;;;;;20.20;100.00;101425.91;5093291;28;20093;-54
2022/08/20 03:59:16;;;;;;;20.73;11.43;;;;;;;20.18;100.00;101420.72;5074520;28;20086;-55
2022/08/20 04:01:44;;;;;;;16.00;11.00;;;;;;;20.19;100.00;101422.34;5091518;28;20074;-52
2022/08/20 04:04:14;;;;;;;14.63;11.30;;;;;;;20.19;100.00;101419.56;5074369;28;20043;-57
2022/08/20 04:06:42;;;;;;;18.55;12.10;;;;;;;20.17;100.00;101421.03;5091839;28;20063;-52
2022/08/20 04:09:11;;;;;;;14.88;10.80;;;;;;;20.17;100.00;101432.09;5091835;28;20089;-50
2022/08/20 04:11:40;;;;;;;17.13;11.35;;;;;;;20.17;100.00;101429.34;5090613;28;20059;-57
2022/08/20 04:14:08;;;;;;;15.55;11.27;;;;;;;20.17;100.00;101441.22;5073725;28;20054;-54
2022/08/20 04:16:39;;;;;;;16.88;11.55;;;;;;;20.19;100.00;101440.91;5074534;28;20040;-53
2022/08/20 04:19:07;;;;;;;16.90;12.15;;;;;;;20.18;100.00;101436.50;5073857;28;20048;-55
2022/08/20 04:21:35;;;;;;;17.90;13.32;;;;;;;20.16;100.00;101442.34;5091405;28;20039;-57
2022/08/20 04:24:04;;;;;;;21.50;13.05;;;;;;;20.14;100.00;101441.03;5092936;28;20055;-53
2022/08/20 04:26:35;;;;;;;20.90;13.52;;;;;;;20.12;100.00;101446.06;5092947;28;20379;-53
2022/08/20 04:29:03;;;;;;;23.20;13.35;;;;;;;20.11;100.00;101452.75;5074543;28;20043;-56
2022/08/20 04:31:34;;;;;;;17.38;12.02;;;;;;;20.12;100.00;101444.13;5091805;28;20116;-56
2022/08/20 04:34:03;;;;;;;20.83;12.05;;;;;;;20.14;100.00;101441.03;5074237;28;20435;-56
2022/08/20 04:36:31;;;;;;;19.45;13.27;;;;;;;20.12;100.00;101443.31;5092756;28;20052;-56
2022/08/20 04:38:59;;;;;;;22.67;12.50;;;;;;;20.11;100.00;101447.22;5074320;28;20044;-57
2022/08/20 04:41:26;;;;;;;24.02;13.70;;;;;;;20.11;100.00;101458.28;5091812;28;20037;-55
2022/08/20 04:43:56;;;;;;;16.38;10.88;;;;;;;20.10;100.00;101457.44;5091534;28;20053;-51
2022/08/20 04:46:27;;;;;;;17.73;13.18;;;;;;;20.12;100.00;101457.13;5063655;28;20036;-52
2022/08/20 04:48:56;;;;;;;22.58;13.65;;;;;;;20.14;100.00;101465.94;5078772;28;20055;-54
2022/08/20 04:51:24;;;;;;;17.55;12.05;;;;;;;20.13;100.00;101459.59;5096352;28;20036;-53
2022/08/20 04:53:55;;;;;;;17.65;11.07;;;;;;;20.17;100.00;101465.31;5095102;28;20085;-54
2022/08/20 04:56:29;;;;;;;21.67;13.07;;;;;;;20.16;100.00;101467.25;5096559;28;20052;-53
2022/08/20 04:59:00;;;;;;;22.52;14.85;;;;;;;20.14;100.00;101469.53;5087756;28;20054;-51
2022/08/20 05:01:28;;;;;;;27.30;16.67;;;;;;;20.14;100.00;101479.78;5078780;28;20045;-52
2022/08/20 05:03:57;;;;;;;25.88;18.52;;;;;;;20.09;100.00;101477.16;5094817;28;20105;-50
2022/08/20 05:06:28;;;;;;;27.05;16.13;;;;;;;20.08;100.00;101481.84;5077901;28;20051;-50
2022/08/20 05:08:57;;;;;;;26.65;17.85;;;;;;;20.09;100.00;101483.50;5078640;28;20032;-56
2022/08/20 05:11:25;;;;;;;31.15;19.30;;;;;;;20.08;100.00;101492.09;5095864;28;20047;-52
2022/08/20 05:14:07;;;;;;;29.55;18.67;;;;;;;20.07;100.00;101496.00;5095065;28;20028;-50
2022/08/20 05:16:37;;;;;;;28.27;18.67;;;;;;;20.04;100.00;101493.88;5068940;28;20067;-49
2022/08/20 05:19:07;;;;;;;30.05;18.17;;;;;;;20.02;100.00;101499.72;5094413;28;20044;-55
2022/08/20 05:21:36;;;;;;;31.10;16.75;;;;;;;20.02;100.00;101502.47;5079098;28;20040;-52
2022/08/20 05:24:04;;;;;;;24.80;15.38;;;;;;;20.05;100.00;101503.81;5076720;28;20040;-49
2022/08/20 05:26:32;;;;;;;34.13;19.85;;;;;;;20.03;100.00;101495.81;5096028;28;20051;-56
2022/08/20 05:29:00;;;;;;;31.55;17.88;;;;;;;20.02;100.00;101490.63;5077384;28;20040;-56
2022/08/20 05:31:29;;;;;;;24.48;16.48;;;;;;;20.02;100.00;101493.38;5061586;28;20044;-55
2022/08/20 05:34:09;;;;;;;33.40;16.95;;;;;;;20.01;100.00;101498.06;5078039;28;20051;-51
2022/08/20 05:36:47;;;;;;;23.88;14.48;;;;;;;20.03;100.00;101503.28;5060703;28;20498;-55
2022/08/20 05:39:17;;;;;;;21.52;14.63;;;;;;;20.04;100.00;101503.00;5077060;28;20036;-55
2022/08/20 05:41:45;;;;;;;33.17;18.90;;;;;;;20.03;100.00;101503.28;5095230;28;20032;-53
2022/08/20 05:44:14;;;;;;;28.15;19.77;;;;;;;19.97;100.00;101497.91;5077217;28;20048;-57
2022/08/20 05:46:43;;;;;;;16.98;12.52;;;;;;;20.00;100.00;101510.28;5076812;28;20052;-53
2022/08/20 05:49:18;;;;;;;23.80;15.98;;;;;;;20.03;100.00;101506.06;5095550;28;20036;-56
2022/08/20 05:51:47;;;;;;;23.45;14.25;;;;;;;20.09;100.00;101504.81;5095385;28;20047;-55
2022/08/20 05:54:14;;;;;;;25.65;17.75;;;;;;;20.09;100.00;101507.59;5076331;28;20052;-55
2022/08/20 05:56:42;;;;;;;25.20;16.70;;;;;;;20.05;100.00;101512.09;5093925;28;20391;-56
2022/08/20 05:59:12;;;;;;;28.63;17.10;;;;;;;20.04;100.00;101507.72;4389289;28;10000568;-55
2022/08/20 06:01:41;;;;;;;26.25;14.70;;;;;;;20.03;100.00;101512.41;5091635;28;20055;-52
2022/08/20 06:04:30;;;;;;;30.80;19.95;;;;;;;20.02;100.00;101515.50;5090696;28;20506;-52
2022/08/20 06:07:03;;;;;;;26.20;17.63;;;;;;;20.00;100.00;101516.63;5082011;28;20051;-51
2022/08/20 06:09:32;;;;;;;30.65;18.98;;;;;;;20.04;100.00;101518.78;5092118;28;20044;-47
2022/08/20 06:12:02;;;;;;;26.55;15.30;;;;;;;20.05;100.00;101523.16;5091928;28;20527;-53
2022/08/20 06:14:31;;;;;;;28.25;18.35;;;;;;;20.06;100.00;101519.25;5091644;28;20043;-55
2022/08/20 06:17:06;;;;;;;26.27;16.05;;;;;;;20.06;100.00;101522.03;5078050;28;20044;-55
2022/08/20 06:19:35;;;;;;;24.35;14.73;;;;;;;20.06;100.00;101522.88;5091886;28;20104;-56
2022/08/20 06:22:04;;;;;;;32.25;17.00;;;;;;;20.08;100.00;101526.09;5091574;28;20054;-55
2022/08/20 06:24:45;;;;;;;29.13;17.45;;;;;;;20.07;100.00;101521.72;5089410;28;20059;-55
2022/08/20 06:27:14;;;;;;;28.48;15.70;;;;;;;20.08;100.00;101520.56;5090055;28;20056;-55
2022/08/20 06:29:42;;;;;;;24.65;15.60;;;;;;;20.07;100.00;101523.69;5072817;28;20036;-56
2022/08/20 06:32:10;;;;;;;24.90;15.35;;;;;;;20.07;100.00;101520.91;5092595;28;20036;-55
2022/08/20 06:34:38;;;;;;;29.75;16.92;;;;;;;20.08;100.00;101519.75;5094284;28;20048;-53
2022/08/20 06:37:27;;;;;;;24.33;13.77;;;;;;;20.13;100.00;101527.94;5078072;28;20063;-53
2022/08/20 06:40:14;;;;;;;24.45;14.15;;;;;;;20.17;100.00;101524.22;5077236;28;20088;-53
2022/08/20 06:42:44;;;;;;;24.15;14.75;;;;;;;20.20;100.00;101523.59;5094058;28;20032;-53
2022/08/20 06:45:23;;;;;;;35.22;18.38;;;;;;;20.20;100.00;101525.53;5094083;28;20044;-53
2022/08/20 06:47:52;;;;;;;28.88;17.23;;;;;;;20.14;100.00;101527.63;5094237;28;20101;-50
2022/08/20 06:50:23;;;;;;;26.20;16.63;;;;;;;20.14;100.00;101530.38;5093869;28;20036;-50
2022/08/20 06:52:50;;;;;;;24.02;15.80;;;;;;;20.16;100.00;101532.84;5093774;28;20048;-54
2022/08/20 06:55:20;;;;;;;23.67;14.75;;;;;;;20.19;100.00;101526.69;5094324;28;20040;-49
2022/08/20 06:57:56;;;;;;;29.92;17.13;;;;;;;20.20;100.00;101529.13;5093908;28;20036;-49
2022/08/20 07:00:25;;;;;;;23.75;15.55;;;;;;;20.14;100.00;101529.59;5093537;28;20059;-54
2022/08/20 07:02:53;;;;;;;22.13;15.07;;;;;;;20.07;100.00;101530.03;5092977;28;20440;-56
2022/08/20 07:05:20;;;;;;;28.38;16.27;;;;;;;20.06;100.00;101530.31;5093330;28;20088;-54
2022/08/20 07:07:49;;;;;;;26.10;16.95;;;;;;;20.06;100.00;101530.31;5093333;28;20055;-53
2022/08/20 07:10:19;;;;;;;25.65;16.42;;;;;;;20.09;100.00;101532.47;5092978;28;20065;-51
2022/08/20 07:12:48;;;;;;;21.88;15.38;;;;;;;20.16;100.00;101535.63;5059181;28;20036;-50
2022/08/20 07:15:17;;;;;;;26.27;17.35;;;;;;;20.14;100.00;101538.69;5076070;28;20056;-51
2022/08/20 07:17:50;;;;;;;23.63;15.65;;;;;;;20.08;100.00;101539.13;5075678;28;20035;-56
2022/08/20 07:20:19;;;;;;;21.40;14.25;;;;;;;20.05;100.00;101542.53;5093483;28;20425;-55
2022/08/20 07:22:48;;;;;;;26.85;17.90;;;;;;;20.05;100.00;101542.53;5072141;28;20075;-55
2022/08/20 07:25:17;;;;;;;22.80;13.98;;;;;;;20.08;100.00;101539.13;5093480;28;20106;-52
2022/08/20 07:27:46;;;;;;;25.92;16.20;;;;;;;20.11;100.00;101542.09;5093783;28;20040;-50
2022/08/20 07:33:23;;;;;;;24.67;15.15;;;;;;;20.15;100.00;101561.63;5084608;28;20093;-55
2022/08/20 07:35:51;;;;;;;21.15;14.82;;;;;;;20.19;100.00;101559.88;5067216;28;20049;-59
2022/08/20 07:38:23;;;;;;;19.48;13.75;;;;;;;20.22;100.00;101559.25;5053275;28;20102;-51
2022/08/20 07:40:53;;;;;;;19.13;15.18;;;;;;;20.22;100.00;101557.28;5041520;28;20884;-56
2022/08/20 07:43:22;;;;;;;28.30;12.95;;;;;;;20.24;100.00;101561.72;5049857;28;20045;-59
2022/08/20 07:45:53;;;;;;;48.33;16.35;;;;;;;20.31;100.00;101557.34;5051981;28;20040;-51
2022/08/20 07:48:27;;;;;;;33.35;14.05;;;;;;;20.37;100.00;101561.63;5051363;28;20048;-57
2022/08/20 07:51:02;;;;;;;22.60;12.85;;;;;;;20.35;100.00;101572.22;5045902;28;20037;-55
2022/08/20 07:53:32;;;;;;;20.17;14.15;;;;;;;20.29;100.00;101573.47;5051214;28;20499;-55
2022/08/20 07:56:09;;;;;;;25.15;14.10;;;;;;;20.23;100.00;101580.28;5034899;28;20049;-55
2022/08/20 07:58:40;;;;;;;21.03;12.50;;;;;;;20.22;100.00;101581.38;5052819;28;20462;-53
2022/08/20 08:01:10;;;;;;;23.08;11.57;;;;;;;20.24;100.00;101578.31;5033813;28;20495;-50
2022/08/20 08:03:38;;;;;;;20.95;12.45;;;;;;;20.30;100.00;101583.41;5051191;28;20450;-51
2022/08/20 08:06:21;;;;;;;18.63;12.10;;;;;;;20.28;100.00;101577.38;5051013;28;20484;-57
2022/08/20 08:09:06;;;;;;;14.68;10.13;;;;;;;20.35;100.00;101583.28;5050676;28;20071;-57
2022/08/20 08:11:36;;;;;;;24.65;12.50;;;;;;;20.45;100.00;101581.38;5049369;28;20056;-55
2022/08/20 08:14:07;;;;;;;20.75;12.27;;;;;;;20.40;100.00;101583.16;5043226;28;20037;-56
2022/08/20 08:16:35;;;;;;;25.90;12.63;;;;;;;20.30;100.00;101582.56;5051428;28;20037;-56
2022/08/20 08:19:06;;;;;;;21.17;12.38;;;;;;;20.27;100.00;101583.22;5051898;28;20041;-56
2022/08/20 08:21:34;;;;;;;16.95;9.70;;;;;;;20.29;100.00;101581.75;5052677;28;20041;-56
2022/08/20 08:24:02;;;;;;;20.42;11.90;;;;;;;20.28;100.00;101579.31;5056073;28;20040;-53
2022/08/20 08:26:30;;;;;;;17.67;10.50;;;;;;;20.31;100.00;101579.50;5054210;28;20037;-53
2022/08/20 08:28:58;;;;;;;25.80;11.73;;;;;;;20.35;100.00;101586.03;5054008;28;20053;-57
2022/08/20 08:31:25;;;;;;;16.40;10.80;;;;;;;20.40;100.00;101585.91;5054481;28;20045;-57
2022/08/20 08:33:54;;;;;;;22.60;11.73;;;;;;;20.45;100.00;101586.94;5054319;28;20041;-53
2022/08/20 08:36:22;;;;;;;17.02;11.15;;;;;;;20.52;100.00;101588.09;5072702;28;20064;-58
2022/08/20 08:38:50;;;;;;;17.38;11.18;;;;;;;20.51;100.00;101592.00;5094187;28;20051;-58
2022/08/20 08:41:36;;;;;;;13.60;7.70;;;;;;;20.60;100.00;101597.63;5079694;28;20040;-55
2022/08/20 08:44:06;;;;;;;;;;;;;;;20.60;100.00;101597.63;5077428;28;20043;-55
2022/08/20 08:46:41;;;;;;;16.67;9.48;;;;;;;20.57;100.00;101601.84;5095737;28;19920;-51
2022/08/20 08:49:16;;;;;;;21.23;10.98;;;;;;;20.55;100.00;101601.34;5078182;28;20040;-54
2022/08/20 08:51:48;;;;;;;17.15;9.35;;;;;;;20.62;100.00;101606.44;5092706;28;20051;-56
2022/08/20 08:54:21;;;;;;;15.95;8.85;;;;;;;20.68;100.00;101605.16;5078092;28;20410;-55
2022/08/20 08:56:49;;;;;;;15.60;9.10;;;;;;;20.71;99.41;101607.31;5078763;28;20079;-53
2022/08/20 08:59:18;;;;;;;17.27;9.52;;;;;;;20.67;96.61;101606.28;5078141;28;20512;-56
2022/08/20 09:01:49;;;;;;;19.20;10.07;;;;;;;20.62;96.92;101611.97;5077557;28;20509;-55
2022/08/20 09:04:32;;;;;;;18.48;8.63;;;;;;;20.51;94.59;101605.03;5079153;28;20040;-55
2022/08/20 09:07:01;;;;;;;19.33;8.95;;;;;;;20.48;94.62;101608.44;5066677;28;20509;-53
2022/08/20 09:09:32;;;;;;;14.40;7.57;;;;;;;20.57;95.94;101612.91;5095668;28;20044;-58
2022/08/20 09:12:07;;;;;;;14.43;8.07;;;;;;;20.69;96.42;101612.34;5073789;28;20044;-55
2022/08/20 09:14:35;;;;;;;40.08;13.13;;;;;;;20.76;94.79;101604.41;5093598;28;20089;-56
2022/08/20 09:17:03;;;;;;;17.85;8.65;;;;;;;20.84;94.98;101609.16;5095089;28;20388;-55
2022/08/20 09:19:31;;;;;;;17.02;7.82;;;;;;;20.88;92.21;101619.59;5095803;28;20040;-55
2022/08/20 09:22:05;;;;;;;16.95;8.02;;;;;;;20.78;92.35;101627.06;5077499;28;20044;-52
2022/08/20 09:24:33;;;;;;;17.73;8.02;;;;;;;20.75;92.14;101621.31;5095374;28;20070;-53
2022/08/20 09:27:00;;;;;;;18.05;7.88;;;;;;;20.78;91.99;101626.22;5077548;28;20036;-54
2022/08/20 09:29:28;;;;;;;14.35;7.72;;;;;;;20.83;91.55;101613.06;5077243;28;20044;-54
2022/08/20 09:32:17;;;;;;;14.00;5.97;;;;;;;20.98;92.26;101606.28;5076572;28;20040;-55
2022/08/20 09:34:55;;;;;;;16.10;7.40;;;;;;;20.99;88.15;101609.88;5076562;28;20044;-56
2022/08/20 09:37:24;;;;;;;;;;;;;;;20.92;87.71;101615.03;5078531;28;20052;-53
2022/08/20 09:39:53;;;;;;;13.43;6.38;;;;;;;20.91;87.71;101607.88;5077462;28;19969;-56
2022/08/20 09:42:24;;;;;;;13.50;7.40;;;;;;;20.94;87.05;101612.78;5076891;28;20098;-54
2022/08/20 09:44:52;;;;;;;12.18;6.00;;;;;;;20.99;87.14;101604.31;5095298;28;20052;-52
2022/08/20 09:47:20;;;;;;;14.13;6.63;;;;;;;21.00;85.70;101605.97;5076967;28;20039;-52
2022/08/20 09:49:48;;;;;;;14.82;6.18;;;;;;;20.97;82.65;101603.81;5077498;28;20047;-53
2022/08/20 09:52:26;;;;;;;16.02;5.63;;;;;;;21.03;83.71;101603.38;5077557;28;20039;-56
2022/08/20 09:55:00;;;;;;;16.75;6.18;;;;;;;21.12;82.54;101602.56;5076413;28;20044;-54
2022/08/20 09:57:29;;;;;;;14.38;6.10;;;;;;;21.14;80.87;101606.69;5095065;28;20755;-56
2022/08/20 10:00:00;;;;;;;14.82;5.55;;;;;;;21.17;79.25;101603.25;5092967;28;20040;-54
2022/08/20 10:02:39;;;;;;;12.10;5.88;;;;;;;21.21;80.02;101611.72;5094718;28;20483;-55
2022/08/20 10:05:07;;;;;;;17.35;5.55;;;;;;;21.19;80.68;101608.47;5060262;28;20148;-54
2022/08/20 10:07:40;;;;;;;15.05;4.93;;;;;;;21.16;72.61;101609.91;5077462;28;20043;-53
2022/08/20 10:10:11;;;;;;;14.32;3.92;;;;;;;21.14;69.98;101616.94;5075396;28;20043;-55
2022/08/20 10:12:40;;;;;;;13.55;4.03;;;;;;;21.06;71.02;101613.00;5076487;28;20043;-52
2022/08/20 10:15:09;;;;;;;9.20;3.50;;;;;;;21.07;71.24;101606.31;5094707;28;20043;-53
2022/08/20 10:17:39;;;;;;;11.75;4.20;;;;;;;21.13;71.34;101613.34;5093732;28;20072;-56
2022/08/20 10:20:09;;;;;;;16.98;4.60;;;;;;;21.18;70.75;101613.19;5075933;28;20048;-53
2022/08/20 10:22:37;;;;;;;15.52;4.50;;;;;;;21.21;71.27;101611.72;5093736;28;20036;-55
2022/08/20 10:25:05;;;;;;;14.68;4.00;;;;;;;21.18;68.59;101612.38;5075674;28;20043;-56
2022/08/20 10:27:34;;;;;;;14.90;4.10;;;;;;;21.08;68.74;101619.03;5093710;28;20487;-53
2022/08/20 10:30:04;;;;;;;16.35;3.75;;;;;;;21.09;68.79;101620.66;5086315;28;20036;-55
2022/08/20 10:32:32;;;;;;;12.32;4.10;;;;;;;21.11;68.23;101621.16;5067735;28;20544;-52
2022/08/20 10:35:00;;;;;;;13.32;3.90;;;;;;;21.19;68.45;101620.38;5094093;28;20075;-51
2022/08/20 10:37:28;;;;;;;11.30;3.60;;;;;;;21.24;68.93;101623.00;5095382;28;20142;-53
2022/08/20 10:39:56;;;;;;;13.10;3.55;;;;;;;21.31;67.38;101621.72;5095799;28;20040;-53
2022/08/20 10:42:24;;;;;;;14.23;3.75;;;;;;;21.37;68.06;101625.97;5077334;28;20040;-55
2022/08/20 10:44:52;;;;;;;14.65;3.55;;;;;;;21.43;64.99;101616.38;5095810;28;20048;-56
2022/08/20 10:47:27;;;;;;;11.45;3.50;;;;;;;21.47;65.79;101625.72;5095100;28;20409;-54
2022/08/20 10:49:58;;;;;;;12.93;3.38;;;;;;;21.54;63.68;101620.50;5063811;28;20040;-55
2022/08/20 10:52:26;;;;;;;14.63;3.78;;;;;;;21.60;61.30;101619.22;5059112;28;20051;-55
2022/08/20 10:54:55;;;;;;;10.18;3.47;;;;;;;21.67;61.08;101614.00;5086360;28;20040;-47
2022/08/20 10:57:25;;;;;;;13.38;3.60;;;;;;;21.70;60.62;101613.34;4389573;28;9999977;-54
2022/08/20 10:59:55;;;;;;;12.95;3.95;;;;;;;21.70;60.34;101615.31;5090454;28;20052;-49
2022/08/20 11:02:23;;;;;;;14.85;3.30;;;;;;;21.76;60.47;101618.75;5072265;28;20044;-53
2022/08/20 11:04:52;;;;;;;15.07;3.78;;;;;;;21.80;58.43;101617.78;5071353;28;20094;-50
2022/08/20 11:07:28;;;;;;;12.63;3.50;;;;;;;21.80;55.44;101617.78;5065781;28;20044;-52
2022/08/20 11:10:16;;;;;;;12.13;3.10;;;;;;;21.91;53.67;101618.25;5090042;28;20356;-50
2022/08/20 11:12:43;;;;;;;12.32;3.22;;;;;;;21.95;52.55;101619.25;5072004;28;20060;-49
2022/08/20 11:15:13;;;;;;;12.23;3.10;;;;;;;22.03;54.79;101620.38;5088049;28;20506;-49
2022/08/20 11:17:42;;;;;;;12.43;3.55;;;;;;;22.09;53.94;101617.13;5089760;28;20044;-53
2022/08/20 11:20:13;;;;;;;11.57;3.15;;;;;;;22.11;51.34;101617.63;5089154;28;20043;-50
2022/08/20 11:22:41;;;;;;;12.75;3.10;;;;;;;22.12;52.36;101613.69;5090020;28;20040;-52
2022/08/20 11:25:09;;;;;;;13.13;3.40;;;;;;;22.17;50.47;101620.22;5088856;28;20080;-50
2022/08/20 11:27:43;;;;;;;12.68;3.28;;;;;;;22.23;51.49;101616.19;5089610;28;20043;-51